sensor_id;sensor_type;location;lat;lon;timestamp;P1;durP1;ratioP1;P2;durP2;ratioP2
20593;SDS011;10455;48.732;10.266;2023-09-07T00:03:53;13.70;;;12.30;;
20593;SDS011;10455;48.732;10.266;2023-09-07T00:08:58;13.83;;;12.53;;
20593;SDS011;10455;48.732;10.266;2023-09-07T00:14:10;12.80;;;11.70;;
20593;SDS011;10455;48.732;10.266;2023-09-07T00:19:13;13.20;;;12.00;;
20593;SDS011;10455;48.732;10.266;2023-09-07T00:24:16;12.27;;;11.17;;
20593;SDS011;10455;48.732;10.266;2023-09-07T00:29:21;12.43;;;11.33;;
20593;SDS011;10455;48.732;10.266;2023-09-07T00:34:26;12.50;;;11.20;;
20593;SDS011;10455;48.732;10.266;2023-09-07T00:40:13;12.13;;;10.83;;
20593;SDS011;10455;48.732;10.266;2023-09-07T00:45:38;13.77;;;12.47;;
20593;SDS011;10455;48.732;10.266;2023-09-07T00:50:41;11.70;;;10.60;;
20593;SDS011;10455;48.732;10.266;2023-09-07T00:55:44;12.87;;;11.53;;
20593;SDS011;10455;48.732;10.266;2023-09-07T01:06:12;12.37;;;10.87;;
20593;SDS011;10455;48.732;10.266;2023-09-07T01:11:19;15.40;;;13.80;;
20593;SDS011;10455;48.732;10.266;2023-09-07T01:16:24;14.37;;;13.03;;
20593;SDS011;10455;48.732;10.266;2023-09-07T01:21:27;12.93;;;11.63;;
20593;SDS011;10455;48.732;10.266;2023-09-07T01:26:35;15.60;;;14.13;;
20593;SDS011;10455;48.732;10.266;2023-09-07T01:31:38;15.93;;;14.33;;
20593;SDS011;10455;48.732;10.266;2023-09-07T01:36:42;13.53;;;12.23;;
20593;SDS011;10455;48.732;10.266;2023-09-07T01:41:44;14.67;;;13.27;;
20593;SDS011;10455;48.732;10.266;2023-09-07T01:46:45;15.27;;;13.90;;
20593;SDS011;10455;48.732;10.266;2023-09-07T01:51:50;13.30;;;12.03;;
20593;SDS011;10455;48.732;10.266;2023-09-07T01:56:52;17.57;;;15.77;;
20593;SDS011;10455;48.732;10.266;2023-09-07T02:01:54;18.53;;;16.63;;
20593;SDS011;10455;48.732;10.266;2023-09-07T02:06:58;17.50;;;15.80;;
20593;SDS011;10455;48.732;10.266;2023-09-07T02:12:00;14.97;;;13.57;;
20593;SDS011;10455;48.732;10.266;2023-09-07T02:17:03;17.63;;;15.73;;
20593;SDS011;10455;48.732;10.266;2023-09-07T02:22:06;15.57;;;13.93;;
20593;SDS011;10455;48.732;10.266;2023-09-07T02:27:08;14.17;;;12.77;;
20593;SDS011;10455;48.732;10.266;2023-09-07T02:32:13;15.63;;;14.13;;
20593;SDS011;10455;48.732;10.266;2023-09-07T02:37:16;19.00;;;17.13;;
20593;SDS011;10455;48.732;10.266;2023-09-07T02:42:18;14.07;;;12.67;;
20593;SDS011;10455;48.732;10.266;2023-09-07T02:47:20;12.90;;;11.70;;
20593;SDS011;10455;48.732;10.266;2023-09-07T02:52:24;15.73;;;13.00;;
20593;SDS011;10455;48.732;10.266;2023-09-07T02:57:26;15.53;;;13.93;;
20593;SDS011;10455;48.732;10.266;2023-09-07T03:02:27;17.70;;;15.83;;
20593;SDS011;10455;48.732;10.266;2023-09-07T03:07:31;14.90;;;13.47;;
20593;SDS011;10455;48.732;10.266;2023-09-07T03:12:34;13.90;;;12.47;;
20593;SDS011;10455;48.732;10.266;2023-09-07T03:17:36;11.60;;;10.40;;
20593;SDS011;10455;48.732;10.266;2023-09-07T03:22:39;13.20;;;12.00;;
20593;SDS011;10455;48.732;10.266;2023-09-07T03:27:42;14.73;;;13.37;;
20593;SDS011;10455;48.732;10.266;2023-09-07T03:32:43;13.70;;;11.90;;
20593;SDS011;10455;48.732;10.266;2023-09-07T03:37:47;15.50;;;13.97;;
20593;SDS011;10455;48.732;10.266;2023-09-07T03:42:49;15.43;;;12.67;;
20593;SDS011;10455;48.732;10.266;2023-09-07T03:47:51;14.80;;;13.13;;
20593;SDS011;10455;48.732;10.266;2023-09-07T03:52:54;10.93;;;10.03;;
20593;SDS011;10455;48.732;10.266;2023-09-07T03:57:56;15.57;;;13.80;;
20593;SDS011;10455;48.732;10.266;2023-09-07T04:02:58;17.80;;;15.93;;
20593;SDS011;10455;48.732;10.266;2023-09-07T04:08:01;19.07;;;16.97;;
20593;SDS011;10455;48.732;10.266;2023-09-07T04:13:04;19.93;;;17.97;;
20593;SDS011;10455;48.732;10.266;2023-09-07T04:18:06;18.97;;;16.73;;
20593;SDS011;10455;48.732;10.266;2023-09-07T04:23:09;21.10;;;18.67;;
20593;SDS011;10455;48.732;10.266;2023-09-07T04:28:11;18.03;;;16.33;;
20593;SDS011;10455;48.732;10.266;2023-09-07T04:33:13;18.37;;;16.37;;
20593;SDS011;10455;48.732;10.266;2023-09-07T04:38:16;19.17;;;17.17;;
20593;SDS011;10455;48.732;10.266;2023-09-07T04:43:18;19.30;;;16.47;;
20593;SDS011;10455;48.732;10.266;2023-09-07T04:48:20;21.47;;;18.23;;
20593;SDS011;10455;48.732;10.266;2023-09-07T04:53:23;18.40;;;15.20;;
20593;SDS011;10455;48.732;10.266;2023-09-07T04:58:25;16.10;;;14.40;;
20593;SDS011;10455;48.732;10.266;2023-09-07T05:03:27;20.53;;;17.13;;
20593;SDS011;10455;48.732;10.266;2023-09-07T05:08:30;22.67;;;18.13;;
20593;SDS011;10455;48.732;10.266;2023-09-07T05:13:32;22.80;;;19.07;;
20593;SDS011;10455;48.732;10.266;2023-09-07T05:18:34;26.50;;;20.03;;
20593;SDS011;10455;48.732;10.266;2023-09-07T05:23:37;25.00;;;22.30;;
20593;SDS011;10455;48.732;10.266;2023-09-07T05:28:40;16.80;;;15.20;;
20593;SDS011;10455;48.732;10.266;2023-09-07T05:33:42;10.98;;;9.98;;
20593;SDS011;10455;48.732;10.266;2023-09-07T05:38:46;8.65;;;7.88;;
20593;SDS011;10455;48.732;10.266;2023-09-07T05:43:47;16.40;;;7.72;;
20593;SDS011;10455;48.732;10.266;2023-09-07T05:48:50;11.70;;;5.35;;
20593;SDS011;10455;48.732;10.266;2023-09-07T05:53:53;5.18;;;4.78;;
20593;SDS011;10455;48.732;10.266;2023-09-07T05:58:56;8.50;;;5.13;;
20593;SDS011;10455;48.732;10.266;2023-09-07T06:03:58;4.63;;;4.28;;
20593;SDS011;10455;48.732;10.266;2023-09-07T06:09:01;5.47;;;4.30;;
20593;SDS011;10455;48.732;10.266;2023-09-07T06:14:04;4.15;;;3.85;;
20593;SDS011;10455;48.732;10.266;2023-09-07T06:19:05;4.15;;;3.88;;
20593;SDS011;10455;48.732;10.266;2023-09-07T06:24:09;4.55;;;4.15;;
20593;SDS011;10455;48.732;10.266;2023-09-07T06:29:11;6.03;;;4.03;;
20593;SDS011;10455;48.732;10.266;2023-09-07T06:34:13;4.65;;;4.07;;
20593;SDS011;10455;48.732;10.266;2023-09-07T06:39:16;4.43;;;3.78;;
20593;SDS011;10455;48.732;10.266;2023-09-07T06:44:18;6.43;;;3.97;;
20593;SDS011;10455;48.732;10.266;2023-09-07T06:49:21;4.68;;;4.30;;
20593;SDS011;10455;48.732;10.266;2023-09-07T06:54:25;4.47;;;4.07;;
20593;SDS011;10455;48.732;10.266;2023-09-07T06:59:28;5.55;;;4.13;;
20593;SDS011;10455;48.732;10.266;2023-09-07T07:04:30;3.95;;;3.65;;
20593;SDS011;10455;48.732;10.266;2023-09-07T07:09:34;5.65;;;4.28;;
20593;SDS011;10455;48.732;10.266;2023-09-07T07:14:36;5.35;;;4.85;;
20593;SDS011;10455;48.732;10.266;2023-09-07T07:19:38;4.28;;;3.88;;
20593;SDS011;10455;48.732;10.266;2023-09-07T07:24:43;4.28;;;3.97;;
20593;SDS011;10455;48.732;10.266;2023-09-07T07:29:45;6.40;;;4.70;;
20593;SDS011;10455;48.732;10.266;2023-09-07T07:34:47;4.30;;;4.00;;
20593;SDS011;10455;48.732;10.266;2023-09-07T07:39:51;4.65;;;4.25;;
20593;SDS011;10455;48.732;10.266;2023-09-07T07:44:52;4.28;;;3.88;;
20593;SDS011;10455;48.732;10.266;2023-09-07T07:49:54;4.88;;;4.47;;
20593;SDS011;10455;48.732;10.266;2023-09-07T07:54:58;4.60;;;4.20;;
20593;SDS011;10455;48.732;10.266;2023-09-07T07:59:59;4.13;;;3.72;;
20593;SDS011;10455;48.732;10.266;2023-09-07T08:05:03;4.20;;;3.90;;
20593;SDS011;10455;48.732;10.266;2023-09-07T08:10:07;6.10;;;3.95;;
20593;SDS011;10455;48.732;10.266;2023-09-07T08:15:09;4.05;;;3.70;;
20593;SDS011;10455;48.732;10.266;2023-09-07T08:25:15;4.05;;;3.75;;
20593;SDS011;10455;48.732;10.266;2023-09-07T08:30:18;6.28;;;4.32;;
20593;SDS011;10455;48.732;10.266;2023-09-07T08:35:22;5.60;;;4.40;;
20593;SDS011;10455;48.732;10.266;2023-09-07T08:40:28;4.20;;;3.80;;
20593;SDS011;10455;48.732;10.266;2023-09-07T08:45:31;4.57;;;4.18;;
20593;SDS011;10455;48.732;10.266;2023-09-07T08:50:36;5.28;;;4.60;;
20593;SDS011;10455;48.732;10.266;2023-09-07T08:55:40;4.85;;;4.45;;
20593;SDS011;10455;48.732;10.266;2023-09-07T09:00:42;4.22;;;3.90;;
20593;SDS011;10455;48.732;10.266;2023-09-07T09:05:45;5.70;;;4.43;;
20593;SDS011;10455;48.732;10.266;2023-09-07T09:10:59;5.28;;;4.47;;
20593;SDS011;10455;48.732;10.266;2023-09-07T09:16:03;5.63;;;4.45;;
20593;SDS011;10455;48.732;10.266;2023-09-07T09:21:05;8.30;;;5.10;;
20593;SDS011;10455;48.732;10.266;2023-09-07T09:26:09;5.28;;;4.28;;
20593;SDS011;10455;48.732;10.266;2023-09-07T09:31:12;4.85;;;4.40;;
20593;SDS011;10455;48.732;10.266;2023-09-07T09:36:15;4.72;;;4.32;;
20593;SDS011;10455;48.732;10.266;2023-09-07T09:41:18;6.93;;;4.55;;
20593;SDS011;10455;48.732;10.266;2023-09-07T09:46:21;5.03;;;4.30;;
20593;SDS011;10455;48.732;10.266;2023-09-07T09:51:24;4.63;;;4.22;;
20593;SDS011;10455;48.732;10.266;2023-09-07T09:56:30;4.65;;;4.18;;
20593;SDS011;10455;48.732;10.266;2023-09-07T10:01:36;4.28;;;3.95;;
20593;SDS011;10455;48.732;10.266;2023-09-07T10:06:53;4.53;;;4.13;;
20593;SDS011;10455;48.732;10.266;2023-09-07T10:11:57;4.45;;;4.05;;
20593;SDS011;10455;48.732;10.266;2023-09-07T10:16:59;4.18;;;3.80;;
20593;SDS011;10455;48.732;10.266;2023-09-07T10:22:04;5.85;;;4.25;;
20593;SDS011;10455;48.732;10.266;2023-09-07T10:27:08;4.13;;;3.83;;
20593;SDS011;10455;48.732;10.266;2023-09-07T10:32:11;4.80;;;4.40;;
20593;SDS011;10455;48.732;10.266;2023-09-07T10:37:16;4.50;;;4.10;;
20593;SDS011;10455;48.732;10.266;2023-09-07T10:42:21;4.38;;;3.95;;
20593;SDS011;10455;48.732;10.266;2023-09-07T10:47:23;4.30;;;3.90;;
20593;SDS011;10455;48.732;10.266;2023-09-07T10:52:25;3.97;;;3.58;;
20593;SDS011;10455;48.732;10.266;2023-09-07T10:57:30;4.20;;;3.90;;
20593;SDS011;10455;48.732;10.266;2023-09-07T11:02:32;5.50;;;4.00;;
20593;SDS011;10455;48.732;10.266;2023-09-07T11:07:34;3.85;;;3.55;;
20593;SDS011;10455;48.732;10.266;2023-09-07T11:12:39;4.85;;;4.28;;
20593;SDS011;10455;48.732;10.266;2023-09-07T11:17:41;5.63;;;4.18;;
20593;SDS011;10455;48.732;10.266;2023-09-07T11:22:44;4.35;;;3.95;;
20593;SDS011;10455;48.732;10.266;2023-09-07T11:27:47;4.50;;;4.10;;
20593;SDS011;10455;48.732;10.266;2023-09-07T11:32:49;4.13;;;3.72;;
20593;SDS011;10455;48.732;10.266;2023-09-07T11:37:51;6.35;;;4.22;;
20593;SDS011;10455;48.732;10.266;2023-09-07T11:42:55;4.18;;;3.80;;
20593;SDS011;10455;48.732;10.266;2023-09-07T11:47:57;4.45;;;4.03;;
20593;SDS011;10455;48.732;10.266;2023-09-07T11:52:59;7.30;;;5.28;;
20593;SDS011;10455;48.732;10.266;2023-09-07T11:58:02;4.03;;;3.65;;
20593;SDS011;10455;48.732;10.266;2023-09-07T12:03:05;4.22;;;3.83;;
20593;SDS011;10455;48.732;10.266;2023-09-07T12:08:07;4.00;;;3.65;;
20593;SDS011;10455;48.732;10.266;2023-09-07T12:13:10;4.60;;;3.83;;
20593;SDS011;10455;48.732;10.266;2023-09-07T12:18:12;4.07;;;3.72;;
20593;SDS011;10455;48.732;10.266;2023-09-07T12:23:14;3.97;;;3.67;;
20593;SDS011;10455;48.732;10.266;2023-09-07T12:28:17;5.47;;;3.90;;
20593;SDS011;10455;48.732;10.266;2023-09-07T12:33:20;4.25;;;3.95;;
20593;SDS011;10455;48.732;10.266;2023-09-07T12:38:22;4.03;;;3.63;;
20593;SDS011;10455;48.732;10.266;2023-09-07T12:43:29;5.38;;;4.50;;
20593;SDS011;10455;48.732;10.266;2023-09-07T12:48:32;4.45;;;4.05;;
20593;SDS011;10455;48.732;10.266;2023-09-07T12:53:34;5.03;;;3.92;;
20593;SDS011;10455;48.732;10.266;2023-09-07T12:58:37;4.53;;;3.97;;
20593;SDS011;10455;48.732;10.266;2023-09-07T13:03:39;5.47;;;3.75;;
20593;SDS011;10455;48.732;10.266;2023-09-07T13:08:41;4.10;;;3.67;;
20593;SDS011;10455;48.732;10.266;2023-09-07T13:13:44;3.85;;;3.55;;
20593;SDS011;10455;48.732;10.266;2023-09-07T13:18:46;5.57;;;4.03;;
20593;SDS011;10455;48.732;10.266;2023-09-07T13:23:48;3.70;;;3.40;;
20593;SDS011;10455;48.732;10.266;2023-09-07T13:28:51;4.20;;;3.63;;
20593;SDS011;10455;48.732;10.266;2023-09-07T13:33:53;5.43;;;4.30;;
20593;SDS011;10455;48.732;10.266;2023-09-07T13:38:55;4.00;;;3.65;;
20593;SDS011;10455;48.732;10.266;2023-09-07T13:43:58;4.95;;;3.50;;
20593;SDS011;10455;48.732;10.266;2023-09-07T13:49:00;5.03;;;3.75;;
20593;SDS011;10455;48.732;10.266;2023-09-07T13:54:02;3.70;;;3.40;;
20593;SDS011;10455;48.732;10.266;2023-09-07T13:59:05;3.67;;;3.30;;
20593;SDS011;10455;48.732;10.266;2023-09-07T14:04:07;3.80;;;3.45;;
20593;SDS011;10455;48.732;10.266;2023-09-07T14:09:09;4.20;;;3.80;;
20593;SDS011;10455;48.732;10.266;2023-09-07T14:14:12;6.20;;;3.60;;
20593;SDS011;10455;48.732;10.266;2023-09-07T14:19:15;4.03;;;3.70;;
20593;SDS011;10455;48.732;10.266;2023-09-07T14:24:17;4.57;;;3.35;;
20593;SDS011;10455;48.732;10.266;2023-09-07T14:29:20;4.47;;;3.58;;
20593;SDS011;10455;48.732;10.266;2023-09-07T14:34:22;3.80;;;3.50;;
20593;SDS011;10455;48.732;10.266;2023-09-07T14:39:26;3.85;;;3.38;;
20593;SDS011;10455;48.732;10.266;2023-09-07T14:44:29;5.00;;;3.58;;
20593;SDS011;10455;48.732;10.266;2023-09-07T14:49:31;4.00;;;3.60;;
20593;SDS011;10455;48.732;10.266;2023-09-07T14:54:33;3.63;;;3.33;;
20593;SDS011;10455;48.732;10.266;2023-09-07T14:59:36;4.00;;;3.58;;
20593;SDS011;10455;48.732;10.266;2023-09-07T15:04:39;3.45;;;3.15;;
20593;SDS011;10455;48.732;10.266;2023-09-07T15:09:42;3.67;;;3.28;;
20593;SDS011;10455;48.732;10.266;2023-09-07T15:14:46;5.10;;;3.97;;
20593;SDS011;10455;48.732;10.266;2023-09-07T15:19:49;3.85;;;3.17;;
20593;SDS011;10455;48.732;10.266;2023-09-07T15:24:51;3.78;;;3.42;;
20593;SDS011;10455;48.732;10.266;2023-09-07T15:29:57;3.65;;;3.35;;
20593;SDS011;10455;48.732;10.266;2023-09-07T15:34:58;4.32;;;3.92;;
20593;SDS011;10455;48.732;10.266;2023-09-07T15:40:00;3.53;;;3.25;;
20593;SDS011;10455;48.732;10.266;2023-09-07T15:45:05;3.83;;;3.47;;
20593;SDS011;10455;48.732;10.266;2023-09-07T15:50:08;5.82;;;3.97;;
20593;SDS011;10455;48.732;10.266;2023-09-07T15:55:11;5.03;;;4.50;;
20593;SDS011;10455;48.732;10.266;2023-09-07T16:00:15;5.05;;;4.65;;
20593;SDS011;10455;48.732;10.266;2023-09-07T16:05:17;5.25;;;4.40;;
20593;SDS011;10455;48.732;10.266;2023-09-07T16:10:19;5.00;;;4.28;;
20593;SDS011;10455;48.732;10.266;2023-09-07T16:15:23;5.90;;;3.85;;
20593;SDS011;10455;48.732;10.266;2023-09-07T16:20:24;5.30;;;2.72;;
20593;SDS011;10455;48.732;10.266;2023-09-07T16:25:26;3.78;;;3.38;;
20593;SDS011;10455;48.732;10.266;2023-09-07T16:30:30;3.42;;;3.13;;
20593;SDS011;10455;48.732;10.266;2023-09-07T16:35:32;7.57;;;4.88;;
20593;SDS011;10455;48.732;10.266;2023-09-07T16:40:35;4.40;;;4.00;;
20593;SDS011;10455;48.732;10.266;2023-09-07T16:45:40;7.55;;;3.65;;
20593;SDS011;10455;48.732;10.266;2023-09-07T16:50:44;4.95;;;4.43;;
20593;SDS011;10455;48.732;10.266;2023-09-07T16:55:46;5.03;;;4.00;;
20593;SDS011;10455;48.732;10.266;2023-09-07T17:00:49;4.40;;;4.03;;
20593;SDS011;10455;48.732;10.266;2023-09-07T17:05:51;5.05;;;4.45;;
20593;SDS011;10455;48.732;10.266;2023-09-07T17:10:57;4.70;;;4.18;;
20593;SDS011;10455;48.732;10.266;2023-09-07T17:16:00;4.85;;;4.05;;
20593;SDS011;10455;48.732;10.266;2023-09-07T17:21:05;5.05;;;4.55;;
20593;SDS011;10455;48.732;10.266;2023-09-07T17:26:08;4.75;;;4.20;;
20593;SDS011;10455;48.732;10.266;2023-09-07T17:31:13;7.30;;;4.78;;
20593;SDS011;10455;48.732;10.266;2023-09-07T17:36:16;4.47;;;4.07;;
20593;SDS011;10455;48.732;10.266;2023-09-07T17:41:19;6.55;;;4.45;;
20593;SDS011;10455;48.732;10.266;2023-09-07T17:46:22;4.40;;;4.00;;
20593;SDS011;10455;48.732;10.266;2023-09-07T17:51:25;4.68;;;4.28;;
20593;SDS011;10455;48.732;10.266;2023-09-07T17:56:27;7.85;;;4.53;;
20593;SDS011;10455;48.732;10.266;2023-09-07T18:01:30;6.75;;;4.93;;
20593;SDS011;10455;48.732;10.266;2023-09-07T18:06:32;6.07;;;5.13;;
20593;SDS011;10455;48.732;10.266;2023-09-07T18:11:34;6.50;;;4.65;;
20593;SDS011;10455;48.732;10.266;2023-09-07T18:16:37;5.75;;;5.15;;
20593;SDS011;10455;48.732;10.266;2023-09-07T18:21:39;7.35;;;5.32;;
20593;SDS011;10455;48.732;10.266;2023-09-07T18:26:41;6.85;;;6.25;;
20593;SDS011;10455;48.732;10.266;2023-09-07T18:31:47;6.50;;;5.90;;
20593;SDS011;10455;48.732;10.266;2023-09-07T18:36:49;6.47;;;5.97;;
20593;SDS011;10455;48.732;10.266;2023-09-07T18:41:51;7.07;;;6.47;;
20593;SDS011;10455;48.732;10.266;2023-09-07T18:46:55;9.70;;;6.75;;
20593;SDS011;10455;48.732;10.266;2023-09-07T18:51:57;6.70;;;6.13;;
20593;SDS011;10455;48.732;10.266;2023-09-07T18:56:59;7.00;;;6.30;;
20593;SDS011;10455;48.732;10.266;2023-09-07T19:02:02;7.40;;;6.80;;
20593;SDS011;10455;48.732;10.266;2023-09-07T19:07:04;8.00;;;7.22;;
20593;SDS011;10455;48.732;10.266;2023-09-07T19:12:07;8.75;;;7.22;;
20593;SDS011;10455;48.732;10.266;2023-09-07T19:17:10;7.45;;;6.85;;
20593;SDS011;10455;48.732;10.266;2023-09-07T19:22:14;7.70;;;6.75;;
20593;SDS011;10455;48.732;10.266;2023-09-07T19:27:16;7.45;;;6.63;;
20593;SDS011;10455;48.732;10.266;2023-09-07T19:32:19;7.57;;;6.93;;
20593;SDS011;10455;48.732;10.266;2023-09-07T19:37:21;8.27;;;7.05;;
20593;SDS011;10455;48.732;10.266;2023-09-07T19:42:23;8.45;;;7.60;;
20593;SDS011;10455;48.732;10.266;2023-09-07T19:47:26;8.80;;;7.68;;
20593;SDS011;10455;48.732;10.266;2023-09-07T19:52:28;8.07;;;7.38;;
20593;SDS011;10455;48.732;10.266;2023-09-07T19:57:30;10.63;;;8.27;;
20593;SDS011;10455;48.732;10.266;2023-09-07T20:02:34;8.90;;;8.00;;
20593;SDS011;10455;48.732;10.266;2023-09-07T20:07:38;9.27;;;8.47;;
20593;SDS011;10455;48.732;10.266;2023-09-07T20:12:43;8.67;;;7.77;;
20593;SDS011;10455;48.732;10.266;2023-09-07T20:17:47;10.67;;;9.10;;
20593;SDS011;10455;48.732;10.266;2023-09-07T20:22:49;9.50;;;8.60;;
20593;SDS011;10455;48.732;10.266;2023-09-07T20:27:51;10.67;;;9.47;;
20593;SDS011;10455;48.732;10.266;2023-09-07T20:32:54;9.63;;;8.73;;
20593;SDS011;10455;48.732;10.266;2023-09-07T20:37:56;8.93;;;8.13;;
20593;SDS011;10455;48.732;10.266;2023-09-07T20:42:59;10.70;;;9.60;;
20593;SDS011;10455;48.732;10.266;2023-09-07T20:48:05;10.20;;;9.30;;
20593;SDS011;10455;48.732;10.266;2023-09-07T20:53:07;10.20;;;9.20;;
20593;SDS011;10455;48.732;10.266;2023-09-07T20:58:09;10.03;;;9.10;;
20593;SDS011;10455;48.732;10.266;2023-09-07T21:03:13;10.97;;;9.87;;
20593;SDS011;10455;48.732;10.266;2023-09-07T21:08:15;10.73;;;9.73;;
20593;SDS011;10455;48.732;10.266;2023-09-07T21:13:17;11.17;;;10.00;;
20593;SDS011;10455;48.732;10.266;2023-09-07T21:18:20;9.80;;;9.00;;
20593;SDS011;10455;48.732;10.266;2023-09-07T21:23:22;9.97;;;9.00;;
20593;SDS011;10455;48.732;10.266;2023-09-07T21:28:24;11.43;;;10.23;;
20593;SDS011;10455;48.732;10.266;2023-09-07T21:33:27;11.50;;;10.37;;
20593;SDS011;10455;48.732;10.266;2023-09-07T21:38:29;11.47;;;10.47;;
20593;SDS011;10455;48.732;10.266;2023-09-07T21:43:31;10.37;;;9.47;;
20593;SDS011;10455;48.732;10.266;2023-09-07T21:48:35;10.60;;;9.53;;
20593;SDS011;10455;48.732;10.266;2023-09-07T21:53:37;11.00;;;9.80;;
20593;SDS011;10455;48.732;10.266;2023-09-07T21:58:40;11.53;;;10.50;;
20593;SDS011;10455;48.732;10.266;2023-09-07T22:03:43;11.53;;;10.53;;
20593;SDS011;10455;48.732;10.266;2023-09-07T22:08:45;11.80;;;10.60;;
20593;SDS011;10455;48.732;10.266;2023-09-07T22:13:47;12.17;;;11.00;;
20593;SDS011;10455;48.732;10.266;2023-09-07T22:18:51;12.67;;;11.40;;
20593;SDS011;10455;48.732;10.266;2023-09-07T22:23:53;12.70;;;11.40;;
20593;SDS011;10455;48.732;10.266;2023-09-07T22:28:55;13.80;;;12.00;;
20593;SDS011;10455;48.732;10.266;2023-09-07T22:33:58;11.97;;;10.87;;
20593;SDS011;10455;48.732;10.266;2023-09-07T22:39:00;13.20;;;11.93;;
20593;SDS011;10455;48.732;10.266;2023-09-07T22:44:02;11.70;;;10.60;;
20593;SDS011;10455;48.732;10.266;2023-09-07T22:49:06;12.20;;;11.00;;
20593;SDS011;10455;48.732;10.266;2023-09-07T22:54:08;11.93;;;10.73;;
20593;SDS011;10455;48.732;10.266;2023-09-07T22:59:10;14.10;;;12.10;;
20593;SDS011;10455;48.732;10.266;2023-09-07T23:04:13;13.80;;;12.40;;
20593;SDS011;10455;48.732;10.266;2023-09-07T23:09:15;14.40;;;12.93;;
20593;SDS011;10455;48.732;10.266;2023-09-07T23:14:19;13.73;;;12.20;;
20593;SDS011;10455;48.732;10.266;2023-09-07T23:19:22;11.00;;;9.87;;
20593;SDS011;10455;48.732;10.266;2023-09-07T23:24:24;14.20;;;12.27;;
20593;SDS011;10455;48.732;10.266;2023-09-07T23:29:27;14.97;;;13.40;;
20593;SDS011;10455;48.732;10.266;2023-09-07T23:34:30;15.00;;;13.60;;
20593;SDS011;10455;48.732;10.266;2023-09-07T23:39:32;15.47;;;13.97;;
20593;SDS011;10455;48.732;10.266;2023-09-07T23:44:34;14.77;;;13.30;;
20593;SDS011;10455;48.732;10.266;2023-09-07T23:49:38;17.23;;;15.30;;
20593;SDS011;10455;48.732;10.266;2023-09-07T23:54:40;13.80;;;12.40;;
20593;SDS011;10455;48.732;10.266;2023-09-07T23:59:42;16.70;;;14.97;;
